Topaz, CA

5:08 AM PDT on October 20, 2014 (GMT -0700)
Antelope Valley | Change Station
CLOSE
Current Station
Personal Weather Station
Location: Coleville, CA
Elevation: 5200 ft
Nearby Weather Stations

Elev 5200 ft 38.58 °N, 119.46 °W | Updated 2 minutes ago

Clear
Clear
45.9 °F
Feels Like 45 °F
N
3.2
Wind Variable Wind from NNW

Today
High -- | Low -- °F
--% Chance of Precip.
Yesterday
High -- | Low -- °F
Precip. -- in
7:12 AM 6:12 PM
Waning Crescent, 11% visible
Pressure 29.88 in
Visibility 10.0 miles
Clouds Clear
Windchill 45 °F
Dew Point 28 °F
Humidity 49%
Rainfall 0.00 in
Snow Depth 0 in , 0 in , 0 in
UV 0 out of 12
Pollen 2.70 out of 12
Air Quality Not available.
Flu Activity Sporadic
METAR KTVL 201153Z AUTO 21005KT 10SM CLR 08/M02 A3003 RMK AO2 SLP119 T00831022 10122 20056 56003

More Conditions Fewer Conditions

Pressure 29.88 in
Visibility 10.0 miles
Clouds Clear
Windchill 45 °F
Dew Point 28 °F
Humidity 49%
Rainfall 0.00 in
Snow Depth 0 in , 0 in , 0 in
UV 0 out of 12
Pollen 2.70 out of 12
Air Quality Not available.
Flu Activity Sporadic
METAR KTVL 201153Z AUTO 21005KT 10SM CLR 08/M02 A3003 RMK AO2 SLP119 T00831022 10122 20056 56003

More Conditions Fewer Conditions

10-Day Weather Forecast

Almanac

Astronomy

Oct. 20, 2014 Rise Set
Actual Time 7:12 AM PDT 6:12 PM PDT
Civil Twilight 6:45 AM PDT 6:39 PM PDT
Nautical Twilight 6:14 AM PDT 7:10 PM PDT
Astronomical Twilight 5:43 AM PDT 7:41 PM PDT
Moon 4:07 AM PDT 4:36 PM PDT
Length of Visible Light 11h 54m
Length of Day
11h 00m
Waning Crescent, 11% of the Moon is Illuminated
Today
Waning Crescent
Oct 23
New
Oct 30
First Quarter
Nov 6
Full
Nov 14
Last Quarter

Today's Extremes

State Highs State Lows

Community

WunderPhotos

Upload Photos

1,763,345 photos uploaded!

Nearby

Snow Depth

Station Depth Elevation
Monitor Pass 0 in 8350 ft
Poison Flat 0 in 7900 ft
Spratt Creek 0 in 6200 ft
Ebbetts Pass 0 in 8700 ft
Summit Meadow 1 in 9122 ft

Earthquake Activity

City Distance Mag. Time & Date
Dixon Lane-Meadow Creek, California 95 miles 2.5 5:32 PM PDT
2014-10-18
Smith Valley, Nevada 6 miles 2.9 10:59 AM PDT
2014-10-18
Minimum magnitude displayed is 2.5.

Coastal Water Temperatures

Place Temperature
No Stations Reporting

Nearby Weather Stations